Boa Esperanca, Brazil
Current Conditions -  °F | °C
As of 7:00 PM on Friday 31 Oct 2014 (Local Time) from SBPC Reporting Station
Light Rain Light Rain  
Wind Chill: 68°   Ceiling: 7000
Heat Index: 68°   Visibility: 4mi
Dew Point: 66°   Wind: 7mph
Humidity: 94%   Direction: 100°E
Pressure: 30.09"   Gusts: NA
Location:  21.09°S, 45.57°W
Report Text: SBPC 312100Z 10006KT 6000 -RA SCT020TCU FEW020TCU BKN070 20/19 Q1019
Loading
Personal Weather Stations






























Interactive Weather Map
Tropical Storm Tracking
New forecast layout! Learn more

10-Day Weather Forecast

Advertisements
Track Severe Weather on mobile